Terminal Aerodrome Forecast
Issued by NWS

Home | Current Version | Previous Version | Graphics & Text | Print | Product List | Glossary On
Versions: 1 2 3 4 5 6 7 8 9 10 11 12 13 14 15 16 17 18 19 20 21 22 23 24 25 26 27 28 29 30 31
164
FTUS43 KABR 122333
TAFPIR
TAF
KPIR 122333Z 1300/1324 09009KT P6SM OVC050
     FM130600 12010KT 5SM -SN BR OVC030
     FM130900 12013KT 5SM -SN BR OVC030
     FM131100 12016KT 3SM -SN OVC020
     FM131600 12017G25KT 1SM -FZRASN OVC015=

USA.gov is the U.S. government's official web portal to all federal, state and local government web resources and services.